Time;durP1;ratioP1;P1;durP2;ratioP2;P2;SDS_P1;SDS_P2;PMS_P1;PMS_P2;Temp;Humidity;BMP_temperature;BMP_pressure;BME280_temperature;BME280_humidity;BME280_pressure;Samples;Min_cycle;Max_cycle;Signal;HPM_P1;HPM_P2
2021/04/17 00:01:41;;;;;;;13.18;9.38;;;0.60;37.00;;;;;;5055988;28;20431;-71
2021/04/17 00:04:07;;;;;;;10.48;9.50;;;0.60;37.60;;;;;;5054305;28;20175;-73
2021/04/17 00:06:34;;;;;;;9.38;8.57;;;0.50;37.90;;;;;;5054253;28;20662;-73
2021/04/17 00:09:01;;;;;;;10.75;9.70;;;0.60;37.90;;;;;;5053576;28;20182;-73
2021/04/17 00:11:28;;;;;;;14.48;8.80;;;0.60;37.90;;;;;;5053632;28;20605;-72
2021/04/17 00:13:54;;;;;;;13.68;12.07;;;0.60;38.00;;;;;;5055118;28;20178;-73
2021/04/17 00:16:20;;;;;;;10.93;9.60;;;0.50;38.10;;;;;;5054018;28;20193;-73
2021/04/17 00:18:45;;;;;;;13.50;10.13;;;0.50;38.60;;;;;;5054614;28;20207;-72
2021/04/17 00:21:11;;;;;;;11.50;8.60;;;0.40;38.80;;;;;;5054820;28;20415;-71
2021/04/17 00:23:37;;;;;;;11.40;9.33;;;0.40;38.90;;;;;;5054217;28;20179;-73
2021/04/17 00:26:02;;;;;;;9.53;8.63;;;0.40;38.90;;;;;;5055145;28;20174;-73
2021/04/17 00:28:28;;;;;;;11.03;9.87;;;0.30;39.30;;;;;;5052642;28;20249;-73
2021/04/17 00:30:53;;;;;;;12.17;10.33;;;0.30;39.20;;;;;;5053854;28;20186;-73
2021/04/17 00:33:19;;;;;;;12.60;9.40;;;0.20;39.20;;;;;;5054973;28;20187;-72
2021/04/17 00:35:45;;;;;;;12.90;10.70;;;0.10;39.10;;;;;;5055156;28;20202;-72
2021/04/17 00:38:10;;;;;;;12.30;10.80;;;0.10;40.10;;;;;;5055440;28;20568;-73
2021/04/17 00:40:36;;;;;;;17.90;11.57;;;0.10;39.70;;;;;;5054847;28;20200;-74
2021/04/17 00:43:02;;;;;;;11.00;9.57;;;0.10;40.40;;;;;;5055617;28;20182;-72
2021/04/17 00:45:28;;;;;;;12.85;10.57;;;0.10;40.40;;;;;;5055856;28;20179;-73
2021/04/17 00:47:54;;;;;;;10.13;9.10;;;0.10;40.30;;;;;;5054118;28;20206;-72
2021/04/17 00:50:19;;;;;;;11.47;10.33;;;0.20;40.50;;;;;;5053859;28;20883;-71
2021/04/17 00:52:45;;;;;;;12.10;10.80;;;0.10;40.60;;;;;;5055736;28;20447;-73
2021/04/17 00:55:13;;;;;;;11.20;10.18;;;0.10;40.70;;;;;;5053491;28;20182;-72
2021/04/17 00:57:39;;;;;;;21.17;11.25;;;0.10;40.60;;;;;;5054580;28;20228;-73
2021/04/17 01:00:09;;;;;;;11.10;9.70;;;0.10;40.50;;;;;;5052835;28;20178;-71
2021/04/17 01:02:55;;;;;;;11.82;10.60;;;0.10;40.80;;;;;;5055100;28;20413;-73
2021/04/17 01:05:24;;;;;;;13.05;9.25;;;0.00;41.20;;;;;;5053516;28;20170;-73
2021/04/17 01:07:51;;;;;;;21.83;9.77;;;0.00;65.10;;;;;;5053057;28;20221;-73
2021/04/17 01:10:37;;;;;;;10.70;9.60;;;0.00;58.20;;;;;;5052972;28;20529;-73
2021/04/17 01:13:04;;;;;;;11.20;10.00;;;0.10;58.20;;;;;;5054585;28;20647;-73
2021/04/17 01:15:30;;;;;;;11.73;10.25;;;0.00;56.50;;;;;;5054456;28;20178;-71
2021/04/17 01:17:57;;;;;;;11.20;9.73;;;0.00;54.90;;;;;;5054469;28;20618;-73
2021/04/17 01:20:43;;;;;;;11.57;10.27;;;0.00;54.50;;;;;;5053998;28;20459;-72
2021/04/17 01:23:31;;;;;;;14.43;10.23;;;0.00;52.50;;;;;;5054452;28;20381;-73
2021/04/17 01:26:03;;;;;;;13.20;11.85;;;0.00;53.70;;;;;;5054656;28;20171;-72
2021/04/17 01:28:33;;;;;;;12.13;11.02;;;-0.10;53.70;;;;;;5053699;28;20221;-73
2021/04/17 01:31:01;;;;;;;14.68;10.13;;;-0.20;53.60;;;;;;5052933;28;20189;-73
2021/04/17 01:33:31;;;;;;;14.38;11.65;;;-0.20;53.60;;;;;;5054939;28;20186;-71
2021/04/17 01:35:58;;;;;;;10.40;9.50;;;-0.20;53.20;;;;;;5053652;28;20185;-72
2021/04/17 01:38:30;;;;;;;11.43;10.25;;;-0.30;52.80;;;;;;5055100;28;20289;-73
2021/04/17 01:41:06;;;;;;;13.68;11.50;;;-0.30;52.80;;;;;;5056699;28;20562;-73
2021/04/17 01:43:32;;;;;;;11.88;9.50;;;-0.30;51.30;;;;;;5059409;28;20662;-73
2021/04/17 01:46:07;;;;;;;12.53;9.47;;;-0.30;51.00;;;;;;5059368;28;20190;-73
2021/04/17 01:48:33;;;;;;;13.52;11.40;;;-0.30;51.80;;;;;;5057241;28;20452;-73
2021/04/17 01:51:00;;;;;;;14.55;12.32;;;-0.30;55.50;;;;;;5057197;28;20690;-72
2021/04/17 01:53:30;;;;;;;13.30;11.02;;;-0.30;56.50;;;;;;5057818;28;20245;-73
2021/04/17 01:55:57;;;;;;;16.52;12.13;;;-0.30;57.90;;;;;;5059299;28;20539;-73
2021/04/17 01:58:25;;;;;;;13.63;12.15;;;-0.30;58.90;;;;;;5058942;28;20207;-72
2021/04/17 02:00:53;;;;;;;13.48;11.13;;;-0.40;41.70;;;;;;5064442;28;20261;-73
2021/04/17 02:03:20;;;;;;;12.77;11.55;;;-0.40;42.40;;;;;;5058612;28;20691;-71
2021/04/17 02:05:48;;;;;;;13.73;12.02;;;-0.40;41.70;;;;;;5058686;28;20250;-73
2021/04/17 02:08:13;;;;;;;13.50;10.70;;;-0.40;41.50;;;;;;5058057;28;20193;-73
2021/04/17 02:10:39;;;;;;;15.20;12.50;;;-0.40;41.80;;;;;;5057559;28;20182;-72
2021/04/17 02:13:07;;;;;;;13.00;11.63;;;-0.40;41.80;;;;;;5056170;28;20244;-73
2021/04/17 02:15:35;;;;;;;11.25;10.10;;;-0.40;42.00;;;;;;5057810;28;20179;-73
2021/04/17 02:18:07;;;;;;;12.35;10.05;;;-0.30;42.30;;;;;;5058667;28;20198;-72
2021/04/17 02:20:39;;;;;;;15.02;11.70;;;-0.30;42.10;;;;;;5058373;28;20277;-71
2021/04/17 02:23:05;;;;;;;12.32;10.75;;;-0.30;42.20;;;;;;5059534;28;20163;-73
2021/04/17 02:25:31;;;;;;;14.07;12.07;;;-0.30;42.30;;;;;;5058846;28;20241;-73
2021/04/17 02:27:57;;;;;;;11.07;9.90;;;-0.30;42.10;;;;;;5057345;28;20453;-73
2021/04/17 02:30:23;;;;;;;13.37;12.00;;;-0.30;42.40;;;;;;5057308;28;20460;-73
2021/04/17 02:32:49;;;;;;;11.20;10.07;;;-0.40;42.20;;;;;;5059070;28;20417;-73
2021/04/17 02:35:14;;;;;;;12.50;11.30;;;-0.30;42.70;;;;;;5058364;28;20171;-73
2021/04/17 02:37:40;;;;;;;13.40;11.60;;;-0.30;42.40;;;;;;5057136;28;20848;-73
2021/04/17 02:40:06;;;;;;;13.77;11.90;;;-0.40;42.80;;;;;;5057377;28;20175;-71
2021/04/17 02:42:32;;;;;;;14.18;12.13;;;-0.40;42.70;;;;;;5058246;28;20690;-72
2021/04/17 02:44:57;;;;;;;17.50;13.07;;;-0.40;42.80;;;;;;5057074;28;20174;-73
2021/04/17 02:47:23;;;;;;;12.57;11.37;;;-0.40;43.20;;;;;;5057383;28;20229;-74
2021/04/17 02:49:48;;;;;;;13.13;11.80;;;-0.30;42.90;;;;;;5056533;28;20190;-73
2021/04/17 02:52:14;;;;;;;12.53;11.23;;;-0.30;42.50;;;;;;5056550;28;20644;-73
2021/04/17 02:54:40;;;;;;;13.50;12.00;;;-0.30;42.80;;;;;;5056802;28;20586;-73
2021/04/17 02:57:06;;;;;;;12.90;11.80;;;-0.30;42.50;;;;;;5055713;28;20230;-73
2021/04/17 02:59:31;;;;;;;14.57;11.38;;;-0.30;42.40;;;;;;5056313;28;20179;-73
2021/04/17 03:01:57;;;;;;;13.27;11.93;;;-0.30;42.50;;;;;;5056703;28;20654;-75
2021/04/17 03:04:22;;;;;;;12.80;10.70;;;-0.30;42.50;;;;;;5056613;28;20221;-72
2021/04/17 03:06:48;;;;;;;11.07;9.73;;;-0.20;42.50;;;;;;5056633;28;20316;-74
2021/04/17 03:09:14;;;;;;;12.83;11.67;;;-0.20;42.00;;;;;;5056128;28;20582;-73
2021/04/17 03:11:39;;;;;;;15.02;11.70;;;-0.20;42.00;;;;;;5055459;28;20309;-73
2021/04/17 03:14:05;;;;;;;12.23;11.00;;;-0.30;41.60;;;;;;5056158;28;20214;-73
2021/04/17 03:16:31;;;;;;;13.17;11.80;;;-0.30;41.80;;;;;;5057380;28;20183;-73
2021/04/17 03:18:56;;;;;;;13.90;11.90;;;-0.40;41.80;;;;;;5056884;28;20252;-72
2021/04/17 03:21:22;;;;;;;16.47;12.93;;;-0.40;41.80;;;;;;5057499;28;20249;-73
2021/04/17 03:23:47;;;;;;;13.17;11.70;;;-0.40;41.80;;;;;;5056834;28;20189;-73
2021/04/17 03:26:13;;;;;;;14.77;13.37;;;-0.40;41.80;;;;;;5056356;28;20206;-72
2021/04/17 03:28:38;;;;;;;11.77;10.67;;;-0.40;41.60;;;;;;5055969;28;20221;-71
2021/04/17 03:31:05;;;;;;;14.50;11.43;;;-0.40;42.20;;;;;;5054366;28;20186;-73
2021/04/17 03:33:30;;;;;;;10.88;9.70;;;-0.40;41.50;;;;;;5056238;28;20178;-73
2021/04/17 03:35:56;;;;;;;12.83;11.67;;;-0.40;41.30;;;;;;5054970;28;20206;-74
2021/04/17 03:38:22;;;;;;;12.73;11.40;;;-0.50;41.20;;;;;;5054464;28;20233;-72
2021/04/17 03:40:48;;;;;;;12.73;11.50;;;-0.60;41.60;;;;;;5054551;28;20178;-73
2021/04/17 03:43:14;;;;;;;16.98;13.80;;;-0.60;42.00;;;;;;5055696;28;20254;-72
2021/04/17 03:45:39;;;;;;;14.50;12.40;;;-0.60;42.00;;;;;;5056038;28;20198;-73
2021/04/17 03:48:05;;;;;;;15.37;13.87;;;-0.60;42.20;;;;;;5054249;28;20443;-73
2021/04/17 03:50:31;;;;;;;14.02;10.75;;;-0.70;42.20;;;;;;5053847;28;20210;-72
2021/04/17 03:52:56;;;;;;;14.37;12.87;;;-0.70;43.50;;;;;;5056287;28;20173;-73
2021/04/17 03:55:22;;;;;;;18.57;12.30;;;-0.70;43.20;;;;;;5054609;28;20183;-73
2021/04/17 03:57:48;;;;;;;14.63;13.00;;;-0.70;43.40;;;;;;5055951;28;20198;-73
2021/04/17 04:00:18;;;;;;;16.03;12.60;;;-0.70;43.50;;;;;;5053816;28;20178;-71
2021/04/17 04:02:44;;;;;;;13.05;11.75;;;-0.70;43.40;;;;;;5055775;28;20182;-72
2021/04/17 04:05:10;;;;;;;15.60;13.10;;;-0.70;43.40;;;;;;5056528;28;20205;-73
2021/04/17 04:07:36;;;;;;;16.55;14.65;;;-0.70;43.50;;;;;;5056522;28;20194;-73
2021/04/17 04:10:04;;;;;;;17.03;15.30;;;-0.70;43.40;;;;;;5053529;28;20175;-72
2021/04/17 04:12:29;;;;;;;13.13;11.93;;;-0.70;43.50;;;;;;5055625;28;20232;-73
2021/04/17 04:14:55;;;;;;;14.53;13.07;;;-0.70;43.40;;;;;;5055833;28;20539;-73
2021/04/17 04:17:20;;;;;;;18.30;13.77;;;-0.60;44.00;;;;;;5055063;28;20202;-73
2021/04/17 04:19:46;;;;;;;14.37;12.43;;;-0.60;43.70;;;;;;5054778;28;20555;-72
2021/04/17 04:22:11;;;;;;;14.53;13.07;;;-0.50;44.00;;;;;;5054944;28;20189;-73
2021/04/17 04:24:37;;;;;;;14.60;12.40;;;-0.50;44.00;;;;;;5055226;28;20197;-73
2021/04/17 04:27:03;;;;;;;14.93;13.30;;;-0.40;44.10;;;;;;5055869;28;20329;-72
2021/04/17 04:29:28;;;;;;;16.00;13.32;;;-0.30;43.80;;;;;;5054492;28;20175;-73
2021/04/17 04:31:54;;;;;;;16.27;14.53;;;-0.20;43.80;;;;;;5054030;28;20186;-71
2021/04/17 04:34:19;;;;;;;17.70;12.20;;;-0.10;43.10;;;;;;5055253;28;20177;-73
2021/04/17 04:36:45;;;;;;;13.87;11.43;;;0.00;42.00;;;;;;5055852;28;20834;-73
2021/04/17 04:39:10;;;;;;;15.00;13.40;;;0.00;41.50;;;;;;5054795;28;20285;-72
2021/04/17 04:41:36;;;;;;;13.60;12.27;;;0.10;40.50;;;;;;5053557;28;20174;-72
2021/04/17 04:44:06;;;;;;;15.85;11.63;;;0.10;39.60;;;;;;5054207;28;20179;-72
2021/04/17 04:46:32;;;;;;;12.77;11.55;;;0.10;39.10;;;;;;5055134;28;20171;-73
2021/04/17 04:48:58;;;;;;;14.50;12.95;;;0.10;38.30;;;;;;5053833;28;20178;-74
2021/04/17 04:51:23;;;;;;;15.63;12.20;;;0.00;37.90;;;;;;5054901;28;20662;-73
2021/04/17 04:53:49;;;;;;;18.10;11.53;;;0.00;37.70;;;;;;5054138;28;20171;-73
2021/04/17 04:56:15;;;;;;;15.90;12.73;;;-0.10;38.20;;;;;;5054583;28;20405;-73
2021/04/17 04:58:40;;;;;;;14.40;12.87;;;-0.20;38.50;;;;;;5054128;28;20218;-71
2021/04/17 05:01:06;;;;;;;18.70;13.30;;;-0.20;38.80;;;;;;5055400;28;20175;-73
2021/04/17 05:03:31;;;;;;;12.97;11.67;;;-0.10;39.00;;;;;;5054228;28;20632;-72
2021/04/17 05:05:57;;;;;;;15.13;12.00;;;0.00;38.40;;;;;;5052212;28;20166;-73
2021/04/17 05:08:23;;;;;;;16.00;13.43;;;0.10;38.80;;;;;;5053121;28;20222;-72
2021/04/17 05:10:48;;;;;;;14.00;12.47;;;0.10;39.10;;;;;;5052440;28;20185;-73
2021/04/17 05:13:14;;;;;;;17.93;16.17;;;0.10;39.10;;;;;;5053681;28;20175;-73
2021/04/17 05:15:39;;;;;;;14.83;13.40;;;0.20;39.90;;;;;;5058725;28;20257;-73
2021/04/17 05:18:05;;;;;;;15.67;14.17;;;0.20;39.40;;;;;;5058685;28;20202;-73
2021/04/17 05:20:31;;;;;;;14.03;12.47;;;0.30;39.00;;;;;;5057987;28;20183;-73
2021/04/17 05:22:56;;;;;;;19.23;12.67;;;0.40;38.70;;;;;;5058758;28;20791;-73
2021/04/17 05:25:22;;;;;;;14.17;12.63;;;0.50;38.50;;;;;;5057831;28;20178;-73
2021/04/17 05:27:47;;;;;;;15.87;14.23;;;0.60;37.90;;;;;;5058348;28;20233;-74
2021/04/17 05:30:14;;;;;;;18.90;14.20;;;0.70;37.50;;;;;;5058727;28;20195;-71
2021/04/17 05:32:41;;;;;;;14.55;13.15;;;0.80;37.40;;;;;;5057779;28;20181;-70
2021/04/17 05:35:07;;;;;;;15.10;13.52;;;0.90;36.80;;;;;;5057899;28;20799;-73
2021/04/17 05:37:32;;;;;;;15.07;13.48;;;1.00;36.40;;;;;;5058770;28;20201;-72
2021/04/17 05:39:58;;;;;;;35.20;15.20;;;1.20;36.90;;;;;;5058794;28;20652;-73
2021/04/17 05:42:23;;;;;;;15.47;13.83;;;1.30;35.80;;;;;;5058814;28;20184;-70
2021/04/17 05:44:49;;;;;;;14.43;13.13;;;1.40;35.60;;;;;;5057904;28;20184;-73
2021/04/17 05:47:14;;;;;;;17.10;12.50;;;1.60;35.30;;;;;;5058500;28;20203;-74
2021/04/17 05:49:40;;;;;;;15.53;13.20;;;1.80;34.50;;;;;;5059045;28;20232;-73
2021/04/17 05:52:06;;;;;;;15.83;14.23;;;1.90;33.10;;;;;;5059018;28;20516;-73
2021/04/17 05:54:31;;;;;;;20.60;13.27;;;2.00;32.30;;;;;;5057394;28;20187;-73
2021/04/17 05:56:57;;;;;;;18.27;13.10;;;2.00;32.50;;;;;;5058424;28;20316;-71
2021/04/17 05:59:22;;;;;;;18.13;15.10;;;2.10;31.60;;;;;;5058168;28;20247;-74
2021/04/17 06:01:48;;;;;;;16.57;14.70;;;2.10;32.40;;;;;;5058523;28;20185;-72
2021/04/17 06:04:14;;;;;;;16.70;14.50;;;2.20;32.50;;;;;;5058581;28;20196;-73
2021/04/17 06:06:40;;;;;;;14.90;13.50;;;2.30;32.60;;;;;;5058734;28;20218;-74
2021/04/17 06:09:06;;;;;;;14.85;13.55;;;2.40;32.40;;;;;;5058312;28;20392;-73
2021/04/17 06:11:31;;;;;;;17.83;16.00;;;2.50;32.00;;;;;;5057983;28;20170;-72
2021/04/17 06:13:57;;;;;;;16.67;14.90;;;2.70;32.00;;;;;;5058244;28;20185;-73
2021/04/17 06:16:22;;;;;;;14.73;13.23;;;2.90;32.00;;;;;;5057796;28;20650;-73
2021/04/17 06:18:48;;;;;;;12.87;11.57;;;3.10;31.40;;;;;;5057411;28;20232;-72
2021/04/17 06:21:14;;;;;;;16.40;14.70;;;3.10;31.40;;;;;;5057519;28;20188;-74
2021/04/17 06:23:39;;;;;;;14.10;12.90;;;3.20;31.10;;;;;;5057597;28;20175;-73
2021/04/17 06:26:05;;;;;;;15.17;13.57;;;3.30;30.90;;;;;;5056595;28;20665;-73
2021/04/17 06:28:31;;;;;;;14.80;13.40;;;3.30;30.40;;;;;;5057271;28;20218;-73
2021/04/17 06:30:57;;;;;;;15.52;12.70;;;3.30;30.40;;;;;;5055530;28;20183;-73
2021/04/17 06:33:23;;;;;;;17.87;15.50;;;3.40;30.40;;;;;;5055488;28;20192;-73
2021/04/17 06:35:49;;;;;;;16.90;14.17;;;3.40;30.00;;;;;;5057661;28;20186;-72
2021/04/17 06:38:15;;;;;;;15.30;13.83;;;3.40;30.70;;;;;;5057267;28;20449;-72
2021/04/17 06:40:42;;;;;;;20.17;14.50;;;3.40;30.00;;;;;;5057264;28;20640;-73
2021/04/17 06:43:08;;;;;;;15.70;14.23;;;3.50;30.00;;;;;;5057211;28;20186;-73
2021/04/17 06:45:36;;;;;;;15.13;13.73;;;3.50;30.00;;;;;;5055301;28;20287;-74
2021/04/17 06:48:09;;;;;;;15.70;13.30;;;3.50;30.00;;;;;;5055584;28;20194;-73
2021/04/17 06:50:36;;;;;;;15.40;13.90;;;3.50;30.00;;;;;;5054465;28;20270;-73
2021/04/17 06:53:04;;;;;;;19.58;17.17;;;3.60;30.60;;;;;;5055272;28;20570;-74
2021/04/17 06:55:30;;;;;;;16.08;14.32;;;3.70;30.50;;;;;;5054834;28;20185;-74
2021/04/17 06:57:57;;;;;;;16.58;14.85;;;3.90;30.40;;;;;;5055420;28;20201;-74
2021/04/17 07:00:23;;;;;;;19.05;14.32;;;4.10;29.70;;;;;;5055196;28;20186;-73
2021/04/17 07:02:48;;;;;;;14.45;13.02;;;4.30;29.30;;;;;;5054092;28;20178;-74
2021/04/17 07:05:14;;;;;;;15.83;13.13;;;4.50;29.30;;;;;;5054070;28;20202;-74
2021/04/17 07:07:40;;;;;;;14.33;12.50;;;4.70;28.70;;;;;;5054429;28;20205;-73
2021/04/17 07:10:06;;;;;;;12.93;11.60;;;4.90;28.30;;;;;;5054998;28;20413;-73
2021/04/17 07:12:32;;;;;;;15.75;12.48;;;5.10;27.30;;;;;;5055303;28;20190;-74
2021/04/17 07:15:04;;;;;;;14.60;13.17;;;5.20;32.00;;;;;;5055778;28;20585;-73
2021/04/17 07:17:33;;;;;;;14.73;13.05;;;5.50;25.70;;;;;;5055317;28;20282;-73
2021/04/17 07:20:01;;;;;;;15.38;13.98;;;5.50;25.10;;;;;;5055545;28;20712;-74
2021/04/17 07:22:27;;;;;;;16.00;12.70;;;5.60;24.70;;;;;;5055637;28;20770;-74
2021/04/17 07:25:05;;;;;;;15.95;14.15;;;5.50;24.80;;;;;;5055618;28;20181;-74
2021/04/17 07:27:50;;;;;;;14.23;12.82;;;5.60;25.10;;;;;;5055314;28;20289;-74
2021/04/17 07:30:19;;;;;;;18.30;16.45;;;5.50;24.60;;;;;;5054786;28;20180;-73
2021/04/17 07:33:03;;;;;;;19.85;14.77;;;5.60;25.60;;;;;;5054998;28;20198;-73
2021/04/17 07:35:34;;;;;;;19.27;14.88;;;5.60;25.20;;;;;;5053875;28;20239;-74
2021/04/17 07:38:18;;;;;;;15.02;13.75;;;5.60;25.30;;;;;;5054417;28;20293;-73
2021/04/17 07:40:59;;;;;;;15.20;13.80;;;5.70;25.40;;;;;;5054403;28;20174;-72
2021/04/17 07:44:02;;;;;;;15.18;13.10;;;5.80;25.20;;;;;;5054372;28;20186;-73
2021/04/17 07:46:39;;;;;;;13.93;12.73;;;5.90;24.90;;;;;;5054188;28;20722;-73
2021/04/17 07:49:21;;;;;;;17.02;15.48;;;6.10;25.00;;;;;;5054256;28;20232;-74
2021/04/17 07:52:10;;;;;;;18.00;16.33;;;6.10;24.50;;;;;;5057006;28;20178;-72
2021/04/17 07:54:40;;;;;;;14.32;13.02;;;5.90;24.70;;;;;;5065109;28;20179;-73
2021/04/17 07:57:11;;;;;;;16.60;15.27;;;5.90;25.00;;;;;;5058231;28;20199;-72
2021/04/17 07:59:39;;;;;;;26.80;15.95;;;6.10;25.00;;;;;;5054359;28;20167;-74
2021/04/17 08:02:05;;;;;;;16.45;14.85;;;6.20;25.10;;;;;;5054165;28;20222;-73
2021/04/17 08:04:31;;;;;;;17.30;15.55;;;6.30;24.50;;;;;;5054366;28;20722;-74
2021/04/17 08:06:59;;;;;;;15.00;13.50;;;6.50;24.40;;;;;;5053452;28;20229;-73
2021/04/17 08:09:26;;;;;;;17.77;14.95;;;7.60;22.60;;;;;;5052643;28;20179;-73
2021/04/17 08:11:57;;;;;;;17.50;15.87;;;7.90;22.00;;;;;;5051994;28;20224;-74
2021/04/17 08:14:25;;;;;;;19.87;17.00;;;8.40;20.60;;;;;;5053912;28;20468;-72
2021/04/17 08:16:52;;;;;;;16.97;15.47;;;9.00;19.40;;;;;;5053742;28;20850;-72
2021/04/17 08:19:19;;;;;;;15.03;13.93;;;9.30;18.60;;;;;;5051285;28;20990;-72
2021/04/17 08:21:47;;;;;;;15.90;14.70;;;9.60;18.30;;;;;;5052072;28;20420;-72
2021/04/17 08:24:13;;;;;;;18.03;16.53;;;9.60;17.60;;;;;;5050582;28;20449;-73
2021/04/17 08:26:40;;;;;;;16.37;15.10;;;9.60;17.60;;;;;;5051850;28;20505;-73
2021/04/17 08:29:05;;;;;;;17.90;16.17;;;9.60;17.90;;;;;;5051511;28;20453;-73
2021/04/17 08:31:37;;;;;;;17.13;15.63;;;9.60;18.40;;;;;;5050494;28;20422;-73
2021/04/17 08:34:20;;;;;;;17.90;16.10;;;9.50;18.80;;;;;;5052328;28;20178;-73
2021/04/17 08:36:51;;;;;;;18.10;16.60;;;9.60;18.90;;;;;;5052236;28;20463;-73
2021/04/17 08:39:41;;;;;;;18.97;16.60;;;9.70;18.50;;;;;;5051698;28;20872;-72
2021/04/17 08:42:15;;;;;;;16.43;15.07;;;9.80;18.00;;;;;;5051063;28;20413;-72
2021/04/17 08:44:46;;;;;;;18.33;16.80;;;9.80;17.90;;;;;;5052314;28;20409;-72
2021/04/17 08:47:14;;;;;;;21.60;17.90;;;10.00;16.90;;;;;;5051411;28;20437;-73
2021/04/17 08:49:41;;;;;;;17.20;15.80;;;10.00;16.90;;;;;;5048860;28;20500;-72
2021/04/17 08:52:21;;;;;;;18.23;16.53;;;10.10;16.40;;;;;;5052228;28;20415;-72
2021/04/17 08:55:01;;;;;;;19.87;18.00;;;10.00;16.50;;;;;;5051171;28;20416;-72
2021/04/17 08:57:27;;;;;;;18.37;16.50;;;10.10;17.40;;;;;;5051218;28;20480;-73
2021/04/17 08:59:55;;;;;;;18.93;16.50;;;10.10;16.90;;;;;;5050354;28;20462;-73
2021/04/17 09:02:22;;;;;;;17.83;16.13;;;10.20;17.60;;;;;;5050281;28;20175;-74
2021/04/17 09:05:05;;;;;;;18.60;15.80;;;10.30;16.70;;;;;;5051476;28;20948;-74
2021/04/17 09:07:33;;;;;;;18.13;16.53;;;10.40;16.90;;;;;;5050888;28;20529;-74
2021/04/17 09:10:23;;;;;;;21.30;19.30;;;10.60;16.80;;;;;;5050494;28;20866;-73
2021/04/17 09:13:13;;;;;;;16.30;15.00;;;10.80;16.10;;;;;;5051331;28;20416;-73
2021/04/17 09:15:56;;;;;;;20.23;18.30;;;10.90;14.70;;;;;;5051171;28;20409;-73
2021/04/17 09:18:34;;;;;;;19.60;17.60;;;10.70;15.20;;;;;;5050972;28;21000;-73
2021/04/17 09:21:06;;;;;;;14.37;12.93;;;10.70;15.30;;;;;;5055152;28;20416;-73
2021/04/17 09:23:43;;;;;;;18.23;11.97;;;10.40;14.30;;;;;;5055795;28;20417;-73
2021/04/17 09:26:28;;;;;;;15.80;14.63;;;9.70;15.60;;;;;;5050727;28;20401;-73
2021/04/17 09:28:55;;;;;;;16.10;14.17;;;9.60;16.70;;;;;;5049766;28;20499;-73
2021/04/17 09:31:20;;;;;;;12.87;11.63;;;9.90;15.90;;;;;;5050738;28;20626;-73
2021/04/17 09:33:46;;;;;;;15.20;13.90;;;10.30;15.40;;;;;;5050756;28;20417;-73
2021/04/17 09:36:21;;;;;;;15.27;13.83;;;10.60;14.50;;;;;;5050569;28;20419;-73
2021/04/17 09:38:49;;;;;;;15.47;14.00;;;11.00;14.60;;;;;;5050296;28;20217;-73
2021/04/17 09:41:15;;;;;;;16.00;14.80;;;11.10;14.10;;;;;;5049198;28;20556;-73
2021/04/17 09:43:40;;;;;;;14.63;13.63;;;11.20;13.20;;;;;;5050451;28;20497;-73
2021/04/17 09:46:15;;;;;;;14.87;13.83;;;11.40;12.60;;;;;;5050556;28;20171;-73
2021/04/17 09:48:42;;;;;;;15.37;14.27;;;11.40;13.20;;;;;;5050351;28;20554;-73
2021/04/17 09:51:23;;;;;;;14.57;13.57;;;11.20;13.00;;;;;;5049463;28;20442;-73
2021/04/17 09:53:50;;;;;;;14.17;13.00;;;11.60;12.50;;;;;;5050685;28;20917;-73
2021/04/17 09:56:29;;;;;;;13.37;12.27;;;12.00;11.10;;;;;;5050598;28;20452;-73
2021/04/17 09:58:56;;;;;;;18.10;16.13;;;12.10;11.10;;;;;;5049807;28;20464;-73
2021/04/17 10:01:22;;;;;;;14.10;13.20;;;12.30;11.30;;;;;;5053883;28;20411;-73
2021/04/17 10:04:00;;;;;;;15.17;13.93;;;12.30;10.30;;;;;;5053931;28;20410;-73
2021/04/17 10:06:27;;;;;;;11.67;10.90;;;12.60;10.40;;;;;;5052473;28;20174;-73
2021/04/17 10:08:54;;;;;;;11.90;11.10;;;12.60;8.50;;;;;;5051787;28;20972;-73
2021/04/17 10:11:28;;;;;;;11.97;11.20;;;12.00;8.80;;;;;;5052514;28;20416;-73
2021/04/17 10:13:55;;;;;;;13.90;12.90;;;11.50;9.70;;;;;;5053969;28;20427;-73
2021/04/17 10:16:35;;;;;;;13.47;11.80;;;11.20;9.70;;;;;;5053677;28;20423;-73
2021/04/17 10:19:02;;;;;;;15.13;11.43;;;10.70;10.10;;;;;;5053067;28;20480;-73
2021/04/17 10:21:33;;;;;;;12.90;12.00;;;9.90;12.90;;;;;;5052708;28;20421;-73
2021/04/17 10:24:24;;;;;;;12.30;11.40;;;9.40;13.60;;;;;;5052558;28;20475;-73
2021/04/17 10:26:56;;;;;;;11.20;10.30;;;9.20;14.30;;;;;;5052149;28;20666;-73
2021/04/17 10:29:44;;;;;;;12.03;11.20;;;9.10;14.20;;;;;;5057422;28;20498;-74
2021/04/17 10:32:21;;;;;;;11.37;10.50;;;9.30;13.20;;;;;;5056539;28;20418;-73
2021/04/17 10:34:53;;;;;;;12.50;11.40;;;9.40;10.90;;;;;;5057314;28;20424;-73
2021/04/17 10:37:21;;;;;;;12.23;11.30;;;9.70;11.90;;;;;;5052338;28;20528;-72
2021/04/17 10:39:59;;;;;;;13.70;12.80;;;10.20;11.50;;;;;;5052488;28;20908;-71
2021/04/17 10:42:25;;;;;;;11.77;11.00;;;10.50;11.20;;;;;;5053134;28;20416;-72
2021/04/17 10:44:55;;;;;;;13.47;12.30;;;10.70;10.70;;;;;;5052842;28;20498;-72
2021/04/17 10:47:21;;;;;;;13.83;12.97;;;10.50;10.70;;;;;;5052815;28;20199;-72
2021/04/17 10:49:47;;;;;;;13.17;12.17;;;10.40;10.30;;;;;;5050963;28;20427;-72
2021/04/17 10:52:28;;;;;;;12.77;11.93;;;10.20;11.00;;;;;;5051537;28;20416;-72
2021/04/17 10:54:55;;;;;;;12.83;12.03;;;10.10;11.10;;;;;;5052608;28;20489;-72
2021/04/17 10:57:21;;;;;;;13.23;12.43;;;10.00;11.50;;;;;;5052400;28;20877;-73
2021/04/17 11:00:05;;;;;;;12.80;12.10;;;10.00;11.30;;;;;;5050648;28;20413;-71
2021/04/17 11:02:33;;;;;;;12.77;12.17;;;10.10;11.50;;;;;;5052609;28;20195;-72
2021/04/17 11:05:00;;;;;;;14.07;12.80;;;10.20;10.70;;;;;;5052375;28;20927;-72
2021/04/17 11:07:36;;;;;;;13.30;12.27;;;10.10;10.30;;;;;;5052653;28;20430;-72
2021/04/17 11:10:04;;;;;;;13.27;12.33;;;10.10;10.70;;;;;;5051732;28;20483;-72
2021/04/17 11:12:31;;;;;;;14.13;13.33;;;10.20;10.80;;;;;;5051663;28;20778;-72
2021/04/17 11:15:20;;;;;;;13.53;12.67;;;10.50;10.60;;;;;;5055399;28;20500;-72
2021/04/17 11:18:18;;;;;;;13.80;12.83;;;10.60;10.40;;;;;;5060526;28;20459;-72
2021/04/17 11:20:59;;;;;;;14.30;13.50;;;10.30;9.90;;;;;;5051968;28;20766;-72
2021/04/17 11:23:53;;;;;;;14.57;13.20;;;10.10;9.70;;;;;;5052183;28;20409;-73
2021/04/17 11:26:23;;;;;;;14.20;13.40;;;10.00;10.00;;;;;;5050948;28;20621;-72
2021/04/17 11:28:55;;;;;;;14.37;13.40;;;10.30;10.30;;;;;;5051444;28;21058;-73
2021/04/17 11:31:25;;;;;;;13.73;12.83;;;10.70;9.10;;;;;;5051576;28;20423;-73
2021/04/17 11:33:53;;;;;;;14.60;13.50;;;11.00;10.00;;;;;;5057982;28;20403;-70
2021/04/17 11:36:21;;;;;;;14.57;13.67;;;11.40;8.40;;;;;;5056993;28;20423;-71
2021/04/17 11:38:47;;;;;;;14.13;13.13;;;11.50;7.00;;;;;;5057542;28;20468;-74
2021/04/17 11:41:13;;;;;;;13.17;12.33;;;11.20;8.10;;;;;;5052479;28;20910;-73
2021/04/17 11:43:38;;;;;;;13.90;13.00;;;11.10;8.60;;;;;;5052067;28;20422;-72
2021/04/17 11:46:04;;;;;;;14.93;13.90;;;11.20;8.20;;;;;;5052612;28;20519;-73
2021/04/17 11:48:30;;;;;;;13.93;13.20;;;11.10;8.80;;;;;;5051998;28;20208;-73
2021/04/17 11:50:57;;;;;;;14.10;13.30;;;11.20;9.20;;;;;;5056879;28;20183;-73
2021/04/17 11:53:22;;;;;;;15.80;14.70;;;11.20;9.40;;;;;;5066727;28;20441;-72
2021/04/17 11:55:50;;;;;;;14.23;13.53;;;11.00;9.70;;;;;;5051630;28;20435;-72
2021/04/17 11:58:16;;;;;;;15.30;14.03;;;10.90;9.70;;;;;;5050636;28;20227;-72
2021/04/17 12:00:41;;;;;;;15.13;14.10;;;10.80;10.30;;;;;;5051644;28;20418;-73
2021/04/17 12:03:07;;;;;;;15.50;14.13;;;10.80;9.90;;;;;;5050933;28;20208;-72
2021/04/17 12:05:32;;;;;;;14.47;13.77;;;10.40;9.90;;;;;;5052489;28;20540;-73
2021/04/17 12:07:58;;;;;;;15.83;14.83;;;10.30;9.90;;;;;;5051771;28;20287;-72
2021/04/17 12:10:24;;;;;;;14.70;13.80;;;10.40;9.90;;;;;;5050731;28;20186;-72
2021/04/17 12:12:50;;;;;;;15.23;14.30;;;10.70;10.10;;;;;;5051259;28;20590;-72
2021/04/17 12:15:16;;;;;;;15.87;15.00;;;10.90;9.50;;;;;;5051124;28;20177;-73
2021/04/17 12:17:42;;;;;;;15.67;14.50;;;10.90;9.70;;;;;;5051998;28;20464;-73
2021/04/17 12:20:08;;;;;;;16.70;15.57;;;11.00;10.00;;;;;;5050554;28;20815;-72
2021/04/17 12:22:34;;;;;;;14.43;13.57;;;11.40;9.40;;;;;;5050997;28;20787;-71
2021/04/17 12:24:59;;;;;;;15.67;14.87;;;11.70;8.90;;;;;;5050361;28;20412;-72
2021/04/17 12:27:25;;;;;;;14.53;13.73;;;11.60;8.70;;;;;;5050890;28;20211;-72
2021/04/17 12:29:51;;;;;;;15.50;14.67;;;11.40;7.50;;;;;;5050458;28;20644;-71
2021/04/17 12:32:16;;;;;;;14.40;13.70;;;11.10;8.50;;;;;;5051056;28;20171;-72
2021/04/17 12:34:42;;;;;;;15.70;14.77;;;10.90;8.30;;;;;;5050739;28;20185;-72
2021/04/17 12:37:07;;;;;;;15.97;14.60;;;10.90;8.30;;;;;;5050733;28;20640;-72
2021/04/17 12:39:33;;;;;;;14.80;14.10;;;10.70;8.50;;;;;;5050210;28;20216;-74
2021/04/17 12:42:05;;;;;;;16.30;15.07;;;10.60;8.90;;;;;;5050711;28;20267;-71